createdAt,value
2023-05-14T00:01:10.072Z,67.85
2023-05-14T00:03:37.720Z,68.02
2023-05-14T00:06:05.008Z,68.30
2023-05-14T00:08:31.650Z,68.31
2023-05-14T00:10:59.005Z,68.40
2023-05-14T00:13:26.341Z,68.57
2023-05-14T00:15:53.029Z,68.59
2023-05-14T00:18:19.723Z,68.37
2023-05-14T00:20:46.367Z,68.17
2023-05-14T00:23:13.007Z,67.94
2023-05-14T00:25:40.081Z,67.69
2023-05-14T00:28:06.803Z,67.49
2023-05-14T00:30:33.424Z,67.31
2023-05-14T00:33:00.054Z,67.16
2023-05-14T00:35:26.962Z,67.09
2023-05-14T00:37:53.873Z,67.19
2023-05-14T00:40:21.026Z,67.32
2023-05-14T00:42:48.268Z,67.47
2023-05-14T00:45:14.920Z,67.55
2023-05-14T00:47:41.568Z,68.01
2023-05-14T00:50:09.101Z,68.30
2023-05-14T00:52:36.942Z,68.50
2023-05-14T00:55:07.492Z,68.81
2023-05-14T00:57:36.097Z,68.90
2023-05-14T01:00:03.814Z,69.07
2023-05-14T01:02:31.002Z,69.27
2023-05-14T01:04:57.891Z,69.31
2023-05-14T01:07:28.808Z,69.36
2023-05-14T01:10:01.281Z,69.48
2023-05-14T01:12:53.355Z,69.58
2023-05-14T01:15:38.290Z,69.50
2023-05-14T01:18:08.095Z,69.37
2023-05-14T01:20:35.092Z,69.43
2023-05-14T01:23:01.939Z,69.38
2023-05-14T01:25:29.281Z,69.43
2023-05-14T01:28:18.246Z,69.50
2023-05-14T01:31:00.994Z,69.48
2023-05-14T01:33:27.916Z,69.61
2023-05-14T01:35:54.866Z,69.77
2023-05-14T01:38:21.723Z,69.91
2023-05-14T01:40:48.459Z,70.07
2023-05-14T01:43:15.725Z,70.21
2023-05-14T01:45:42.721Z,70.37
2023-05-14T01:48:09.483Z,70.51
2023-05-14T01:50:36.218Z,70.67
2023-05-14T01:53:03.168Z,70.87
2023-05-14T01:55:29.885Z,70.99
2023-05-14T01:57:56.589Z,70.97
2023-05-14T02:00:24.077Z,70.94
2023-05-14T02:02:51.197Z,71.00
2023-05-14T02:05:17.949Z,71.01
2023-05-14T02:07:44.708Z,71.08
2023-05-14T02:10:11.514Z,71.10
2023-05-14T02:12:38.302Z,71.04
2023-05-14T02:15:05.692Z,71.07
2023-05-14T02:17:32.315Z,71.02
2023-05-14T02:19:58.932Z,71.04
2023-05-14T02:22:25.787Z,71.00
2023-05-14T02:24:52.703Z,71.03
2023-05-14T02:27:19.662Z,71.16
2023-05-14T02:29:46.277Z,71.45
2023-05-14T02:32:13.933Z,71.68
2023-05-14T02:34:40.651Z,71.80
2023-05-14T02:37:07.543Z,71.79
2023-05-14T02:39:34.329Z,71.84
2023-05-14T02:42:01.326Z,71.95
2023-05-14T02:44:27.926Z,71.98
2023-05-14T02:46:54.624Z,72.10
2023-05-14T02:49:21.810Z,72.21
2023-05-14T02:51:48.436Z,72.14
2023-05-14T02:54:16.783Z,72.04
2023-05-14T02:56:43.582Z,71.99
2023-05-14T02:59:10.565Z,71.93
2023-05-14T03:01:37.859Z,71.93
2023-05-14T03:04:05.126Z,71.84
2023-05-14T03:06:31.969Z,71.96
2023-05-14T03:08:58.632Z,71.92
2023-05-14T03:11:25.557Z,71.86
2023-05-14T03:13:52.380Z,71.83
2023-05-14T03:16:19.057Z,71.62
2023-05-14T03:18:45.729Z,71.53
2023-05-14T03:21:12.623Z,70.75
2023-05-14T03:23:39.501Z,69.58
2023-05-14T03:26:06.419Z,68.05
2023-05-14T03:28:33.063Z,66.22
2023-05-14T03:30:59.906Z,64.65
2023-05-14T03:33:26.706Z,63.26
2023-05-14T03:35:53.327Z,61.27
2023-05-14T03:38:21.407Z,59.07
2023-05-14T03:40:48.153Z,56.93
2023-05-14T03:43:14.949Z,55.22
2023-05-14T03:45:42.347Z,53.60
2023-05-14T03:48:09.533Z,52.59
2023-05-14T03:50:37.156Z,51.97
2023-05-14T03:53:03.895Z,51.66
2023-05-14T03:55:30.659Z,51.74
2023-05-14T03:57:57.299Z,51.96
2023-05-14T04:00:24.338Z,52.09
2023-05-14T04:02:52.464Z,52.41
2023-05-14T04:05:19.183Z,52.69
2023-05-14T04:07:46.387Z,53.27
2023-05-14T04:10:13.652Z,53.51
2023-05-14T04:12:40.317Z,53.84
2023-05-14T04:15:08.858Z,54.05
2023-05-14T04:17:35.764Z,54.43
2023-05-14T04:20:02.447Z,54.85
2023-05-14T04:22:29.066Z,55.33
2023-05-14T04:24:55.703Z,55.51
2023-05-14T04:27:22.432Z,55.85
2023-05-14T04:29:49.873Z,55.82
2023-05-14T04:32:17.753Z,55.68
2023-05-14T04:34:44.412Z,55.63
2023-05-14T04:37:11.030Z,55.63
2023-05-14T04:39:37.935Z,55.26
2023-05-14T04:42:05.322Z,55.24
2023-05-14T04:44:31.929Z,55.10
2023-05-14T04:46:58.562Z,55.02
2023-05-14T04:49:25.365Z,54.98
2023-05-14T04:51:52.547Z,54.35
2023-05-14T04:54:19.203Z,54.28
2023-05-14T04:56:45.865Z,54.03
2023-05-14T04:59:12.788Z,53.46
2023-05-14T05:01:39.490Z,53.06
2023-05-14T05:04:06.324Z,52.76
2023-05-14T05:06:33.039Z,52.15
2023-05-14T05:09:01.837Z,51.69
2023-05-14T05:11:28.926Z,51.17
2023-05-14T05:13:55.875Z,50.50
2023-05-14T05:16:22.937Z,49.52
2023-05-14T05:18:49.913Z,48.76
2023-05-14T05:21:16.639Z,47.34
2023-05-14T05:23:43.325Z,45.61
2023-05-14T05:26:10.155Z,44.09
2023-05-14T05:28:36.773Z,42.70
2023-05-14T05:31:03.491Z,41.19
2023-05-14T05:33:30.450Z,39.74
2023-05-14T05:35:57.060Z,38.54
2023-05-14T05:38:23.719Z,37.10
2023-05-14T05:40:50.347Z,35.84
2023-05-14T05:43:17.014Z,34.61
2023-05-14T05:45:43.831Z,33.23
2023-05-14T05:48:10.528Z,32.01
2023-05-14T05:50:37.267Z,30.71
2023-05-14T05:53:04.175Z,30.12
2023-05-14T05:55:30.969Z,29.99
2023-05-14T05:57:57.689Z,28.93
2023-05-14T06:00:24.915Z,28.09
2023-05-14T06:02:52.453Z,27.16
2023-05-14T06:05:19.698Z,26.58
2023-05-14T06:07:46.478Z,26.32
2023-05-14T06:10:13.096Z,25.94
2023-05-14T06:12:40.512Z,25.58
2023-05-14T06:15:07.824Z,25.22
2023-05-14T06:17:34.497Z,24.93
2023-05-14T06:20:01.233Z,24.21
2023-05-14T06:22:27.970Z,24.26
2023-05-14T06:24:54.678Z,23.95
2023-05-14T06:27:21.477Z,23.74
2023-05-14T06:29:48.122Z,23.84
2023-05-14T06:32:15.809Z,23.71
2023-05-14T06:34:42.950Z,23.98
2023-05-14T06:37:10.495Z,23.64
2023-05-14T06:39:37.366Z,23.68
2023-05-14T06:42:04.320Z,22.91
2023-05-14T06:44:31.362Z,22.99
2023-05-14T06:46:58.034Z,22.98
2023-05-14T06:49:24.740Z,23.32
2023-05-14T06:51:52.332Z,23.43
2023-05-14T06:54:20.459Z,23.60
2023-05-14T06:56:47.201Z,23.58
2023-05-14T06:59:13.907Z,23.22
2023-05-14T07:01:40.972Z,22.91
2023-05-14T07:04:07.962Z,23.25
2023-05-14T07:06:34.797Z,23.39
2023-05-14T07:09:01.466Z,23.33
2023-05-14T07:11:28.281Z,22.68
2023-05-14T07:13:54.954Z,22.24
2023-05-14T07:16:21.603Z,22.09
2023-05-14T07:18:48.313Z,22.18
2023-05-14T07:21:15.058Z,21.81
2023-05-14T07:25:17.882Z,20.63
2023-05-14T07:27:44.546Z,20.17
2023-05-14T07:30:11.675Z,20.14
2023-05-14T07:32:38.461Z,19.60
2023-05-14T07:35:06.261Z,19.64
2023-05-14T07:37:32.900Z,19.41
2023-05-14T07:39:59.700Z,17.84
2023-05-14T07:42:35.994Z,18.11
2023-05-14T07:45:04.961Z,18.79
2023-05-14T07:47:31.753Z,18.23
2023-05-14T07:49:59.380Z,18.05
2023-05-14T07:52:26.111Z,18.18
2023-05-14T07:54:53.006Z,18.82
2023-05-14T07:57:20.100Z,18.52
2023-05-14T07:59:47.897Z,17.72
2023-05-14T08:02:16.300Z,17.79
2023-05-14T08:04:43.058Z,17.59
2023-05-14T08:07:09.710Z,17.50
2023-05-14T08:09:36.633Z,17.12
2023-05-14T08:12:03.569Z,17.52
2023-05-14T08:14:30.229Z,17.30
2023-05-14T08:16:56.917Z,16.90
2023-05-14T08:19:24.436Z,17.28
2023-05-14T08:21:51.592Z,17.78
2023-05-14T08:24:18.755Z,17.87
2023-05-14T08:26:45.382Z,17.55
2023-05-14T08:29:12.972Z,17.68
2023-05-14T08:31:41.538Z,17.84
2023-05-14T08:34:08.194Z,18.13
2023-05-14T08:36:34.825Z,18.32
2023-05-14T08:39:01.518Z,18.29
2023-05-14T08:41:28.105Z,18.20
2023-05-14T08:44:16.187Z,17.87
2023-05-14T08:46:42.860Z,17.96
2023-05-14T08:49:28.839Z,18.53
2023-05-14T08:51:55.492Z,18.70
2023-05-14T08:54:24.735Z,18.40
2023-05-14T08:56:51.957Z,17.74
2023-05-14T08:59:19.366Z,17.64
2023-05-14T09:01:50.457Z,17.70
2023-05-14T09:04:23.286Z,18.08
2023-05-14T09:06:51.199Z,18.24
2023-05-14T09:09:18.113Z,18.02
2023-05-14T09:11:47.318Z,18.16
2023-05-14T09:14:13.989Z,18.30
2023-05-14T09:16:42.751Z,18.97
2023-05-14T09:19:09.734Z,19.05
2023-05-14T09:21:36.528Z,19.60
2023-05-14T09:24:04.027Z,20.05
2023-05-14T09:26:32.181Z,20.08
2023-05-14T09:29:05.189Z,20.40
2023-05-14T09:31:33.085Z,20.05
2023-05-14T09:34:00.073Z,20.50
2023-05-14T09:36:27.765Z,20.72
2023-05-14T09:38:58.069Z,20.45
2023-05-14T09:41:24.839Z,19.99
2023-05-14T09:43:51.628Z,20.22
2023-05-14T09:46:18.367Z,19.77
2023-05-14T09:48:45.976Z,20.10
2023-05-14T09:51:13.276Z,20.91
2023-05-14T09:53:41.382Z,22.35
2023-05-14T09:56:08.046Z,22.71
2023-05-14T09:58:34.675Z,22.49
2023-05-14T10:01:01.943Z,21.47
2023-05-14T10:03:29.876Z,20.78
2023-05-14T10:05:58.835Z,20.12
2023-05-14T10:08:28.091Z,20.17
2023-05-14T10:10:55.948Z,20.07
2023-05-14T10:13:24.286Z,19.66
2023-05-14T10:15:50.906Z,19.50
2023-05-14T10:18:19.845Z,19.53
2023-05-14T10:20:48.698Z,19.27
2023-05-14T10:23:15.734Z,19.65
2023-05-14T10:25:42.506Z,19.74
2023-05-14T10:28:09.221Z,19.30
2023-05-14T10:30:36.031Z,18.99
2023-05-14T10:33:07.355Z,18.73
2023-05-14T10:35:51.945Z,18.66
2023-05-14T10:38:23.324Z,18.73
2023-05-14T10:40:51.611Z,18.69
2023-05-14T10:43:19.545Z,18.97
2023-05-14T10:45:46.411Z,19.10
2023-05-14T10:48:13.083Z,19.36
2023-05-14T10:50:40.148Z,19.32
2023-05-14T10:53:06.894Z,19.20
2023-05-14T10:55:33.775Z,19.20
2023-05-14T10:58:01.509Z,19.64
2023-05-14T11:00:28.276Z,19.63
2023-05-14T11:02:56.132Z,19.96
2023-05-14T11:05:22.896Z,20.28
2023-05-14T11:07:50.372Z,20.22
2023-05-14T11:10:18.503Z,20.41
2023-05-14T11:12:46.847Z,20.91
2023-05-14T11:15:15.096Z,20.53
2023-05-14T11:17:42.427Z,20.67
2023-05-14T11:20:10.000Z,20.97
2023-05-14T11:22:37.384Z,21.24
2023-05-14T11:25:04.684Z,21.27
2023-05-14T11:27:36.396Z,20.90
2023-05-14T11:30:04.127Z,20.92
2023-05-14T11:32:34.126Z,21.22
2023-05-14T11:35:00.908Z,21.75
2023-05-14T11:37:27.547Z,21.77
2023-05-14T11:39:55.305Z,21.52
2023-05-14T11:42:22.413Z,21.09
2023-05-14T11:44:50.330Z,20.83
2023-05-14T11:47:18.371Z,21.03
2023-05-14T11:49:45.445Z,20.57
2023-05-14T11:52:14.904Z,20.29
2023-05-14T11:54:42.694Z,20.30
2023-05-14T11:57:19.584Z,19.90
2023-05-14T11:59:47.251Z,19.43
2023-05-14T12:02:16.133Z,19.53
2023-05-14T12:04:43.074Z,19.31
2023-05-14T12:07:14.563Z,19.06
2023-05-14T12:09:49.212Z,18.79
2023-05-14T12:12:20.397Z,18.74
2023-05-14T12:14:47.349Z,18.71
2023-05-14T12:17:18.230Z,18.67
2023-05-14T12:19:45.633Z,18.84
2023-05-14T12:22:13.902Z,19.08
2023-05-14T12:24:40.530Z,19.22
2023-05-14T12:27:07.632Z,19.40
2023-05-14T12:29:38.816Z,19.35
2023-05-14T12:32:09.365Z,19.40
2023-05-14T12:34:37.690Z,19.35
2023-05-14T12:37:05.946Z,18.92
2023-05-14T12:39:33.731Z,19.01
2023-05-14T12:42:00.797Z,19.06
2023-05-14T12:44:27.778Z,19.40
2023-05-14T12:46:54.527Z,19.67
2023-05-14T12:49:21.539Z,19.83
2023-05-14T12:51:48.159Z,20.16
2023-05-14T12:54:16.031Z,19.56
2023-05-14T12:56:42.880Z,19.54
2023-05-14T12:59:09.633Z,20.13
2023-05-14T13:01:37.649Z,20.45
2023-05-14T13:04:05.749Z,20.69
2023-05-14T13:06:32.753Z,20.68
2023-05-14T13:09:01.924Z,20.65
2023-05-14T13:11:30.429Z,20.83
2023-05-14T13:14:00.128Z,20.98
2023-05-14T13:16:27.752Z,20.86
2023-05-14T13:18:55.448Z,20.97
2023-05-14T13:21:22.247Z,21.02
2023-05-14T13:23:49.009Z,20.85
2023-05-14T13:26:16.155Z,20.92
2023-05-14T13:28:43.007Z,21.30
2023-05-14T13:31:11.280Z,21.61
2023-05-14T13:33:40.852Z,21.82
2023-05-14T13:36:08.303Z,21.93
2023-05-14T13:38:35.014Z,22.09
2023-05-14T13:41:04.530Z,22.29
2023-05-14T13:43:31.908Z,22.50
2023-05-14T13:45:59.347Z,22.59
2023-05-14T13:48:26.087Z,22.72
2023-05-14T13:50:52.860Z,22.93
2023-05-14T13:53:20.598Z,22.99
2023-05-14T13:55:49.150Z,23.20
2023-05-14T13:58:16.870Z,23.27
2023-05-14T14:00:44.261Z,23.37
2023-05-14T14:03:11.261Z,23.78
2023-05-14T14:05:38.473Z,24.12
2023-05-14T14:08:21.956Z,24.46
2023-05-14T14:10:50.702Z,24.35
2023-05-14T14:13:17.395Z,24.61
2023-05-14T14:15:44.371Z,24.99
2023-05-14T14:18:11.301Z,25.39
2023-05-14T14:20:38.031Z,25.75
2023-05-14T14:23:04.667Z,25.89
2023-05-14T14:25:31.377Z,26.09
2023-05-14T14:27:58.065Z,26.15
2023-05-14T14:30:24.826Z,26.36
2023-05-14T14:32:51.639Z,26.76
2023-05-14T14:35:19.204Z,26.84
2023-05-14T14:37:49.148Z,27.07
2023-05-14T14:40:16.866Z,27.58
2023-05-14T14:42:43.727Z,27.67
2023-05-14T14:45:11.003Z,27.66
2023-05-14T14:47:37.674Z,27.75
2023-05-14T14:50:05.587Z,28.00
2023-05-14T14:52:32.324Z,28.25
2023-05-14T14:54:58.940Z,28.14
2023-05-14T14:57:26.774Z,28.11
2023-05-14T14:59:53.609Z,28.37
2023-05-14T15:02:21.235Z,28.49
2023-05-14T15:04:48.422Z,28.54
2023-05-14T15:07:17.587Z,28.81
2023-05-14T15:09:45.017Z,29.28
2023-05-14T15:12:12.780Z,29.52
2023-05-14T15:14:40.332Z,29.56
2023-05-14T15:17:07.322Z,29.59
2023-05-14T15:19:34.277Z,29.92
2023-05-14T15:22:01.770Z,30.66
2023-05-14T15:24:29.674Z,31.79
2023-05-14T15:26:56.540Z,32.78
2023-05-14T15:29:23.196Z,33.06
2023-05-14T15:31:49.958Z,33.25
2023-05-14T15:34:16.606Z,34.23
2023-05-14T15:36:43.245Z,35.28
2023-05-14T15:39:12.964Z,35.95
2023-05-14T15:41:39.817Z,36.61
2023-05-14T15:44:06.589Z,37.09
2023-05-14T15:46:33.480Z,37.01
2023-05-14T15:49:00.133Z,37.20
2023-05-14T15:51:26.909Z,37.45
2023-05-14T15:53:54.840Z,38.14
2023-05-14T15:56:22.641Z,38.99
2023-05-14T15:58:49.676Z,39.34
2023-05-14T16:01:16.426Z,40.27
2023-05-14T16:03:43.151Z,41.25
2023-05-14T16:06:10.029Z,42.48
2023-05-14T16:08:36.689Z,43.56
2023-05-14T16:11:03.343Z,43.74
2023-05-14T16:13:30.095Z,44.25
2023-05-14T16:15:56.792Z,44.92
2023-05-14T16:18:25.279Z,45.44
2023-05-14T16:20:52.110Z,45.09
2023-05-14T16:23:19.012Z,44.78
2023-05-14T16:25:45.728Z,45.00
2023-05-14T16:28:13.491Z,45.18
2023-05-14T16:30:40.204Z,45.05
2023-05-14T16:33:06.927Z,44.87
2023-05-14T16:35:33.734Z,45.03
2023-05-14T16:38:00.389Z,45.42
2023-05-14T16:40:27.191Z,46.09
2023-05-14T16:42:53.828Z,46.64
2023-05-14T16:45:20.682Z,47.02
2023-05-14T16:47:47.366Z,46.99
2023-05-14T16:50:14.149Z,46.67
2023-05-14T16:52:40.847Z,46.69
2023-05-14T16:55:08.085Z,46.52
2023-05-14T16:57:35.155Z,46.10
2023-05-14T17:00:04.663Z,46.32
2023-05-14T17:02:33.013Z,46.78
2023-05-14T17:05:00.309Z,46.96
2023-05-14T17:07:27.126Z,47.00
2023-05-14T17:09:53.813Z,46.92
2023-05-14T17:12:20.678Z,47.26
2023-05-14T17:14:47.326Z,47.81
2023-05-14T17:17:14.088Z,48.49
2023-05-14T17:19:41.115Z,48.98
2023-05-14T17:22:08.270Z,49.26
2023-05-14T17:24:36.632Z,49.60
2023-05-14T17:27:03.480Z,49.44
2023-05-14T17:29:30.143Z,49.12
2023-05-14T17:31:56.830Z,48.97
2023-05-14T17:34:23.876Z,48.98
2023-05-14T17:36:50.607Z,48.91
2023-05-14T17:39:17.216Z,48.93
2023-05-14T17:41:44.043Z,49.04
2023-05-14T17:44:12.909Z,49.45
2023-05-14T17:46:41.608Z,49.87
2023-05-14T17:49:08.490Z,50.04
2023-05-14T17:51:35.380Z,50.22
2023-05-14T17:54:01.996Z,50.05
2023-05-14T17:56:28.639Z,49.75
2023-05-14T17:58:55.258Z,49.75
2023-05-14T18:01:21.896Z,50.03
2023-05-14T18:03:48.920Z,50.12
2023-05-14T18:06:16.893Z,50.26
2023-05-14T18:08:43.781Z,50.16
2023-05-14T18:11:10.376Z,50.30
2023-05-14T18:13:37.108Z,50.39
2023-05-14T18:16:04.204Z,50.16
2023-05-14T18:18:31.098Z,50.29
2023-05-14T18:20:57.921Z,50.39
2023-05-14T18:23:24.535Z,50.67
2023-05-14T18:25:51.166Z,50.74
2023-05-14T18:28:18.975Z,51.05
2023-05-14T18:30:45.784Z,51.37
2023-05-14T18:33:12.553Z,51.50
2023-05-14T18:35:39.368Z,51.90
2023-05-14T18:38:08.026Z,52.11
2023-05-14T18:40:35.060Z,52.24
2023-05-14T18:43:01.848Z,52.55
2023-05-14T18:45:28.467Z,52.84
2023-05-14T18:47:55.180Z,53.04
2023-05-14T18:50:21.956Z,53.10
2023-05-14T18:52:48.702Z,53.65
2023-05-14T18:55:15.636Z,53.98
2023-05-14T18:57:42.274Z,54.30
2023-05-14T19:00:09.840Z,54.57
2023-05-14T19:02:36.608Z,54.79
2023-05-14T19:05:03.425Z,54.83
2023-05-14T19:07:30.852Z,54.97
2023-05-14T19:09:57.759Z,55.12
2023-05-14T19:12:24.651Z,55.33
2023-05-14T19:14:51.286Z,55.45
2023-05-14T19:17:19.862Z,55.49
2023-05-14T19:19:47.379Z,55.51
2023-05-14T19:22:14.042Z,55.52
2023-05-14T19:24:40.723Z,55.82
2023-05-14T19:27:08.130Z,56.02
2023-05-14T19:29:36.880Z,56.71
2023-05-14T19:32:04.745Z,57.82
2023-05-14T19:34:31.579Z,58.88
2023-05-14T19:36:58.195Z,59.50
2023-05-14T19:39:24.802Z,60.00
2023-05-14T19:43:14.329Z,60.43
2023-05-14T19:45:42.856Z,60.70
2023-05-14T19:48:09.780Z,61.00
2023-05-14T19:50:37.160Z,61.16
2023-05-14T19:53:04.583Z,61.03
2023-05-14T19:55:31.416Z,60.73
2023-05-14T19:57:58.842Z,60.57
2023-05-14T20:00:26.799Z,60.27
2023-05-14T20:02:55.017Z,59.80
2023-05-14T20:05:22.170Z,59.38
2023-05-14T20:07:49.518Z,59.11
2023-05-14T20:10:16.250Z,58.93
2023-05-14T20:12:42.912Z,58.62
2023-05-14T20:15:10.275Z,58.41
2023-05-14T20:17:38.313Z,58.29
2023-05-14T20:20:06.917Z,57.90
2023-05-14T20:22:33.572Z,57.55
2023-05-14T20:25:00.413Z,57.31
2023-05-14T20:27:27.226Z,56.96
2023-05-14T20:29:54.356Z,56.91
2023-05-14T20:32:25.037Z,56.80
2023-05-14T20:34:52.009Z,56.83
2023-05-14T20:37:19.855Z,56.82
2023-05-14T20:39:46.894Z,57.06
2023-05-14T20:42:13.675Z,57.60
2023-05-14T20:44:40.468Z,57.99
2023-05-14T20:47:07.166Z,58.33
2023-05-14T20:49:33.816Z,58.61
2023-05-14T20:52:00.614Z,58.38
2023-05-14T20:54:27.263Z,58.33
2023-05-14T20:56:53.878Z,58.31
2023-05-14T20:59:20.479Z,58.36
2023-05-14T21:01:47.410Z,58.58
2023-05-14T21:04:15.290Z,58.87
2023-05-14T21:06:42.276Z,59.16
2023-05-14T21:09:08.921Z,59.48
2023-05-14T21:11:35.753Z,59.93
2023-05-14T21:14:02.429Z,60.23
2023-05-14T21:16:30.314Z,60.43
2023-05-14T21:18:57.484Z,60.59
2023-05-14T21:21:24.193Z,60.73
2023-05-14T21:23:51.103Z,61.14
2023-05-14T21:26:17.717Z,61.55
2023-05-14T21:28:44.283Z,61.86
2023-05-14T21:31:10.899Z,61.85
2023-05-14T21:33:37.577Z,61.81
2023-05-14T21:36:04.664Z,61.88
2023-05-14T21:38:32.496Z,61.80
2023-05-14T21:40:59.690Z,62.19
2023-05-14T21:43:26.771Z,62.51
2023-05-14T21:45:53.375Z,63.27
2023-05-14T21:48:20.306Z,63.63
2023-05-14T21:50:47.136Z,63.89
2023-05-14T21:53:13.852Z,63.97
2023-05-14T21:55:40.674Z,64.00
2023-05-14T21:58:07.599Z,63.72
2023-05-14T22:00:34.309Z,63.62
2023-05-14T22:03:00.910Z,63.66
2023-05-14T22:05:27.768Z,63.69
2023-05-14T22:07:54.651Z,63.87
2023-05-14T22:10:21.446Z,63.92
2023-05-14T22:12:48.187Z,63.84
2023-05-14T22:15:14.821Z,63.57
2023-05-14T22:17:42.036Z,63.37
2023-05-14T22:20:11.659Z,63.36
2023-05-14T22:22:38.550Z,63.71
2023-05-14T22:25:05.704Z,63.91
2023-05-14T22:27:32.410Z,64.09
2023-05-14T22:29:59.251Z,64.21
2023-05-14T22:32:26.031Z,64.25
2023-05-14T22:34:52.766Z,64.17
2023-05-14T22:37:19.452Z,64.24
2023-05-14T22:39:46.073Z,64.14
2023-05-14T22:42:13.278Z,64.03
2023-05-14T22:44:40.090Z,64.11
2023-05-14T22:47:06.811Z,64.07
2023-05-14T22:49:33.391Z,64.19
2023-05-14T22:52:00.060Z,64.19
2023-05-14T22:54:26.654Z,64.44
2023-05-14T22:56:53.390Z,64.48
2023-05-14T22:59:21.013Z,64.54
2023-05-14T23:01:49.541Z,64.36
2023-05-14T23:04:16.262Z,64.27
2023-05-14T23:06:42.970Z,64.45
2023-05-14T23:09:09.565Z,64.50
2023-05-14T23:11:36.180Z,64.47
2023-05-14T23:14:03.070Z,64.20
2023-05-14T23:16:29.670Z,64.17
2023-05-14T23:18:56.419Z,64.31
2023-05-14T23:21:23.807Z,64.75
2023-05-14T23:23:50.489Z,65.12
2023-05-14T23:26:17.112Z,65.59
2023-05-14T23:28:44.103Z,66.22
2023-05-14T23:31:10.872Z,66.48
2023-05-14T23:33:39.895Z,66.57
2023-05-14T23:36:07.288Z,66.66
2023-05-14T23:38:33.961Z,66.77
2023-05-14T23:41:00.606Z,67.14
2023-05-14T23:43:27.276Z,67.39
2023-05-14T23:45:53.899Z,67.68
2023-05-14T23:48:20.683Z,67.92
2023-05-14T23:50:47.786Z,68.09
2023-05-14T23:53:14.348Z,68.19
2023-05-14T23:55:41.117Z,68.37
2023-05-14T23:58:07.847Z,68.48
